createdAt,value
2022-11-26T00:02:26.487Z,8.49
2022-11-26T00:04:55.441Z,8.45
2022-11-26T00:07:27.801Z,8.48
2022-11-26T00:09:56.669Z,8.48
2022-11-26T00:12:34.551Z,8.51
2022-11-26T00:15:28.229Z,8.50
2022-11-26T00:17:56.002Z,8.48
2022-11-26T00:20:30.520Z,8.49
2022-11-26T00:23:01.415Z,8.49
2022-11-26T00:25:40.253Z,8.49
2022-11-26T00:28:32.172Z,8.42
2022-11-26T00:31:13.262Z,8.56
2022-11-26T00:33:40.133Z,8.65
2022-11-26T00:36:19.915Z,8.68
2022-11-26T00:38:52.072Z,8.69
2022-11-26T00:41:24.908Z,8.70
2022-11-26T00:43:51.820Z,8.73
2022-11-26T00:46:21.910Z,8.73
2022-11-26T00:48:48.958Z,8.77
2022-11-26T00:51:27.152Z,8.77
2022-11-26T00:53:56.437Z,8.79
2022-11-26T00:56:23.457Z,8.79
2022-11-26T00:58:51.138Z,8.84
2022-11-26T01:01:25.787Z,8.81
2022-11-26T01:03:53.235Z,8.81
2022-11-26T01:06:27.620Z,8.84
2022-11-26T01:08:54.481Z,8.87
2022-11-26T01:11:23.737Z,8.79
2022-11-26T01:13:53.483Z,8.81
2022-11-26T01:16:30.319Z,8.83
2022-11-26T01:19:02.264Z,8.85
2022-11-26T01:21:31.398Z,8.91
2022-11-26T01:23:58.257Z,8.90
2022-11-26T01:26:28.981Z,8.83
2022-11-26T01:28:56.186Z,8.84
2022-11-26T01:31:27.748Z,8.73
2022-11-26T01:33:55.081Z,8.72
2022-11-26T01:36:36.449Z,8.70
2022-11-26T01:39:10.837Z,8.66
2022-11-26T01:42:07.327Z,8.63
2022-11-26T01:44:36.855Z,8.61
2022-11-26T01:47:30.402Z,8.59
2022-11-26T01:50:28.624Z,8.55
2022-11-26T01:53:22.052Z,8.53
2022-11-26T01:55:53.898Z,8.52
2022-11-26T01:58:28.287Z,8.51
2022-11-26T02:00:55.496Z,8.57
2022-11-26T02:03:23.859Z,8.56
2022-11-26T02:06:05.776Z,8.62
2022-11-26T02:08:34.464Z,8.60
2022-11-26T02:11:18.755Z,8.64
2022-11-26T02:13:48.749Z,8.65
2022-11-26T02:16:48.063Z,8.67
2022-11-26T02:19:53.181Z,8.70
2022-11-26T02:22:50.149Z,8.67
2022-11-26T02:26:00.629Z,8.69
2022-11-26T02:29:05.597Z,8.71
2022-11-26T02:31:56.336Z,8.72
2022-11-26T02:34:54.258Z,8.74
2022-11-26T02:37:35.188Z,8.77
2022-11-26T02:40:02.025Z,8.79
2022-11-26T02:42:33.575Z,8.79
2022-11-26T02:45:10.882Z,8.78
2022-11-26T02:47:41.491Z,8.79
2022-11-26T02:50:29.911Z,8.78
2022-11-26T02:52:58.852Z,8.78
2022-11-26T02:55:30.983Z,8.77
2022-11-26T02:57:58.337Z,8.81
2022-11-26T03:00:25.445Z,8.85
2022-11-26T03:03:08.713Z,8.85
2022-11-26T03:05:39.170Z,8.91
2022-11-26T03:08:07.568Z,8.92
2022-11-26T03:10:34.741Z,8.94
2022-11-26T03:13:01.599Z,8.92
2022-11-26T03:15:28.728Z,8.94
2022-11-26T03:17:55.562Z,8.94
2022-11-26T03:20:22.374Z,8.94
2022-11-26T03:22:49.464Z,8.97
2022-11-26T03:25:16.499Z,8.96
2022-11-26T03:27:43.418Z,8.92
2022-11-26T03:30:10.703Z,8.89
2022-11-26T03:32:37.651Z,8.82
2022-11-26T03:35:05.413Z,8.84
2022-11-26T03:37:32.288Z,8.85
2022-11-26T03:39:59.369Z,8.85
2022-11-26T03:42:26.494Z,8.84
2022-11-26T03:44:53.564Z,8.89
2022-11-26T03:47:20.925Z,8.87
2022-11-26T03:49:47.747Z,8.83
2022-11-26T03:52:14.670Z,8.88
2022-11-26T03:54:41.510Z,8.88
2022-11-26T03:57:08.376Z,8.86
2022-11-26T03:59:35.193Z,8.81
2022-11-26T04:02:02.671Z,8.81
2022-11-26T04:04:29.803Z,8.89
2022-11-26T04:06:56.755Z,8.85
2022-11-26T04:09:24.124Z,8.83
2022-11-26T04:11:51.029Z,8.87
2022-11-26T04:14:19.591Z,8.88
2022-11-26T04:16:46.677Z,8.90
2022-11-26T04:19:13.608Z,8.95
2022-11-26T04:21:40.606Z,8.96
2022-11-26T04:24:08.174Z,8.97
2022-11-26T04:26:35.063Z,8.99
2022-11-26T04:29:02.096Z,8.97
2022-11-26T04:31:28.920Z,8.97
2022-11-26T04:33:55.801Z,8.96
2022-11-26T04:36:23.558Z,8.99
2022-11-26T04:38:50.374Z,8.99
2022-11-26T04:41:17.276Z,9.00
2022-11-26T04:43:44.163Z,9.01
2022-11-26T04:46:11.033Z,9.00
2022-11-26T04:48:37.940Z,8.99
2022-11-26T04:51:04.853Z,9.05
2022-11-26T04:53:31.683Z,9.00
2022-11-26T04:55:58.536Z,9.05
2022-11-26T04:58:25.324Z,9.01
2022-11-26T05:00:52.453Z,8.99
2022-11-26T05:03:19.861Z,9.01
2022-11-26T05:05:47.219Z,9.00
2022-11-26T05:08:14.348Z,9.01
2022-11-26T05:10:41.644Z,8.98
2022-11-26T05:13:08.850Z,8.99
2022-11-26T05:15:35.642Z,8.94
2022-11-26T05:18:02.489Z,8.97
2022-11-26T05:20:29.360Z,8.95
2022-11-26T05:22:56.133Z,8.92
2022-11-26T05:25:22.967Z,8.90
2022-11-26T05:27:49.740Z,8.84
2022-11-26T05:30:16.649Z,8.81
2022-11-26T05:32:43.431Z,8.74
2022-11-26T05:35:10.470Z,8.70
2022-11-26T05:37:37.442Z,8.66
2022-11-26T05:40:05.843Z,8.58
2022-11-26T05:42:32.685Z,8.52
2022-11-26T05:44:59.505Z,8.51
2022-11-26T05:47:26.452Z,8.50
2022-11-26T05:49:53.477Z,8.49
2022-11-26T05:52:20.913Z,8.43
2022-11-26T05:54:47.847Z,8.53
2022-11-26T05:57:14.897Z,8.55
2022-11-26T05:59:41.877Z,8.62
2022-11-26T06:02:08.780Z,8.59
2022-11-26T06:04:35.725Z,8.68
2022-11-26T06:07:02.627Z,8.70
2022-11-26T06:09:29.415Z,8.73
2022-11-26T06:11:56.181Z,8.74
2022-11-26T06:14:23.056Z,8.74
2022-11-26T06:16:49.975Z,8.73
2022-11-26T06:19:16.889Z,8.71
2022-11-26T06:21:43.768Z,8.74
2022-11-26T06:24:11.100Z,8.68
2022-11-26T06:26:37.996Z,8.65
2022-11-26T06:29:04.859Z,8.63
2022-11-26T06:31:32.678Z,8.62
2022-11-26T06:33:59.815Z,8.61
2022-11-26T06:36:26.733Z,8.60
2022-11-26T06:38:53.551Z,8.58
2022-11-26T06:41:20.343Z,8.57
2022-11-26T06:43:47.123Z,8.54
2022-11-26T06:46:14.156Z,8.61
2022-11-26T06:48:41.253Z,8.62
2022-11-26T06:51:11.993Z,8.61
2022-11-26T06:53:38.834Z,8.67
2022-11-26T06:56:17.762Z,8.72
2022-11-26T06:58:46.915Z,8.78
2022-11-26T07:01:22.384Z,8.85
2022-11-26T07:03:49.493Z,8.85
2022-11-26T07:06:19.850Z,8.85
2022-11-26T07:08:47.892Z,8.89
2022-11-26T07:11:15.736Z,8.89
2022-11-26T07:13:42.931Z,8.80
2022-11-26T07:16:10.409Z,8.85
2022-11-26T07:18:37.449Z,8.91
2022-11-26T07:21:10.244Z,8.96
2022-11-26T07:23:37.098Z,8.95
2022-11-26T07:26:06.261Z,8.98
2022-11-26T07:28:34.547Z,9.07
2022-11-26T07:31:04.242Z,9.12
2022-11-26T07:33:31.218Z,9.12
2022-11-26T07:36:04.041Z,9.08
2022-11-26T07:38:31.564Z,9.07
2022-11-26T07:41:09.415Z,9.25
2022-11-26T07:43:39.084Z,9.20
2022-11-26T07:46:08.694Z,9.14
2022-11-26T07:48:36.561Z,9.24
2022-11-26T07:51:03.700Z,9.32
2022-11-26T07:53:36.364Z,9.39
2022-11-26T07:56:06.839Z,9.54
2022-11-26T07:58:33.746Z,9.65
2022-11-26T08:01:29.845Z,9.65
2022-11-26T08:03:58.519Z,9.60
2022-11-26T08:06:29.249Z,9.78
2022-11-26T08:08:56.244Z,9.99
2022-11-26T08:11:27.682Z,10.04
2022-11-26T08:13:58.493Z,10.30
2022-11-26T08:16:28.464Z,10.31
2022-11-26T08:18:58.360Z,10.20
2022-11-26T08:21:25.616Z,10.08
2022-11-26T08:23:54.008Z,10.14
2022-11-26T08:26:27.510Z,10.09
2022-11-26T08:28:59.508Z,10.33
2022-11-26T08:31:27.886Z,10.42
2022-11-26T08:33:59.839Z,10.44
2022-11-26T08:36:29.533Z,10.44
2022-11-26T08:38:57.046Z,10.47
2022-11-26T08:41:23.915Z,10.47
2022-11-26T08:44:06.200Z,10.54
2022-11-26T08:46:35.383Z,10.30
2022-11-26T08:49:02.391Z,10.12
2022-11-26T08:51:29.316Z,10.20
2022-11-26T08:53:56.200Z,10.25
2022-11-26T08:56:23.165Z,10.20
2022-11-26T08:58:51.373Z,10.25
2022-11-26T09:01:21.836Z,10.43
2022-11-26T09:03:54.473Z,10.40
2022-11-26T09:06:23.938Z,10.64
2022-11-26T09:09:09.813Z,10.70
2022-11-26T09:12:04.556Z,10.92
2022-11-26T09:14:38.372Z,10.96
2022-11-26T09:17:06.225Z,11.20
2022-11-26T09:19:33.625Z,11.24
2022-11-26T09:22:01.384Z,11.29
2022-11-26T09:24:28.455Z,11.11
2022-11-26T09:26:55.318Z,11.23
2022-11-26T09:29:23.579Z,11.36
2022-11-26T09:34:39.241Z,11.43
2022-11-26T09:37:06.599Z,11.51
2022-11-26T09:39:33.540Z,11.31
2022-11-26T09:42:08.232Z,11.20
2022-11-26T09:45:11.722Z,11.35
2022-11-26T09:47:45.595Z,11.10
2022-11-26T09:50:15.495Z,11.60
2022-11-26T09:52:59.678Z,11.64
2022-11-26T09:55:40.469Z,11.42
2022-11-26T09:58:26.927Z,11.97
2022-11-26T10:00:57.549Z,11.82
2022-11-26T10:03:37.023Z,11.77
2022-11-26T10:06:46.242Z,11.30
2022-11-26T10:09:30.931Z,11.42
2022-11-26T10:12:26.118Z,11.20
2022-11-26T10:15:17.353Z,11.09
2022-11-26T10:17:53.281Z,11.51
2022-11-26T10:20:37.843Z,11.50
2022-11-26T10:23:11.506Z,11.63
2022-11-26T10:25:58.471Z,11.73
2022-11-26T10:28:45.675Z,11.85
2022-11-26T10:31:33.920Z,11.72
2022-11-26T10:34:12.507Z,11.82
2022-11-26T10:36:41.827Z,11.94
2022-11-26T10:39:16.035Z,11.69
2022-11-26T10:41:43.561Z,11.83
2022-11-26T10:44:29.994Z,11.53
2022-11-26T10:46:58.211Z,11.66
2022-11-26T10:49:30.870Z,11.58
2022-11-26T10:52:04.191Z,11.65
2022-11-26T10:54:37.724Z,11.65
2022-11-26T10:57:19.044Z,11.49
2022-11-26T10:59:52.261Z,11.67
2022-11-26T11:02:39.065Z,11.37
2022-11-26T11:05:09.023Z,11.00
2022-11-26T11:07:38.576Z,11.26
2022-11-26T11:10:11.861Z,11.30
2022-11-26T11:12:45.387Z,11.31
2022-11-26T11:15:18.118Z,11.54
2022-11-26T11:17:47.474Z,11.62
2022-11-26T11:20:17.420Z,11.67
2022-11-26T11:22:45.690Z,11.81
2022-11-26T11:25:25.858Z,11.90
2022-11-26T11:27:55.407Z,11.99
2022-11-26T11:30:34.017Z,12.11
2022-11-26T11:33:22.611Z,12.17
2022-11-26T11:36:01.345Z,12.23
2022-11-26T11:38:46.511Z,12.27
2022-11-26T11:41:37.423Z,12.43
2022-11-26T11:44:19.537Z,12.19
2022-11-26T11:47:26.774Z,12.31
2022-11-26T11:50:18.744Z,12.23
2022-11-26T11:53:17.838Z,11.97
2022-11-26T11:56:08.880Z,11.97
2022-11-26T11:59:00.176Z,11.94
2022-11-26T12:02:05.452Z,11.62
2022-11-26T12:05:02.332Z,11.63
2022-11-26T12:07:41.154Z,11.64
2022-11-26T12:10:35.353Z,11.63
2022-11-26T12:13:06.136Z,11.70
2022-11-26T12:15:46.420Z,11.64
2022-11-26T12:18:39.974Z,11.80
2022-11-26T12:21:14.110Z,11.75
2022-11-26T12:24:04.937Z,11.53
2022-11-26T12:26:39.977Z,11.69
2022-11-26T12:29:29.616Z,11.40
2022-11-26T12:32:16.364Z,11.53
2022-11-26T12:34:49.436Z,11.70
2022-11-26T12:37:32.585Z,11.71
2022-11-26T12:40:37.985Z,11.60
2022-11-26T12:43:30.070Z,11.58
2022-11-26T12:46:16.954Z,11.62
2022-11-26T12:49:06.623Z,11.74
2022-11-26T12:52:18.528Z,11.61
2022-11-26T12:55:22.296Z,11.45
2022-11-26T12:57:57.305Z,11.34
2022-11-26T13:00:35.709Z,11.30
2022-11-26T13:03:06.236Z,11.44
2022-11-26T13:05:56.164Z,11.43
2022-11-26T13:08:34.703Z,11.56
2022-11-26T13:11:14.327Z,11.52
2022-11-26T13:13:58.369Z,11.61
2022-11-26T13:16:46.914Z,11.43
2022-11-26T13:19:37.289Z,11.56
2022-11-26T13:22:13.023Z,11.69
2022-11-26T13:25:16.507Z,11.67
2022-11-26T13:27:55.206Z,11.67
2022-11-26T13:30:35.073Z,11.86
2022-11-26T13:33:41.073Z,12.01
2022-11-26T13:36:23.965Z,12.04
2022-11-26T13:39:11.758Z,11.93
2022-11-26T13:42:04.016Z,12.00
2022-11-26T13:45:01.020Z,11.94
2022-11-26T13:47:35.713Z,12.11
2022-11-26T13:50:30.911Z,12.27
2022-11-26T13:53:05.359Z,12.24
2022-11-26T13:55:48.587Z,12.55
2022-11-26T13:58:25.536Z,14.15
2022-11-26T14:00:52.464Z,16.25
2022-11-26T14:03:55.372Z,16.52
2022-11-26T14:06:22.951Z,16.44
2022-11-26T14:08:52.758Z,17.66
2022-11-26T14:11:45.577Z,17.46
2022-11-26T14:14:24.545Z,16.46
2022-11-26T14:17:08.892Z,15.49
2022-11-26T14:19:41.084Z,14.99
2022-11-26T14:22:31.874Z,16.00
2022-11-26T14:25:08.087Z,16.54
2022-11-26T14:27:49.799Z,16.80
2022-11-26T14:30:27.485Z,15.02
2022-11-26T14:33:04.578Z,14.34
2022-11-26T14:35:35.710Z,14.65
2022-11-26T14:38:05.934Z,14.61
2022-11-26T14:40:36.955Z,14.03
2022-11-26T14:43:20.048Z,13.56
2022-11-26T14:46:14.168Z,13.01
2022-11-26T14:48:47.265Z,12.54
2022-11-26T14:51:23.296Z,12.11
2022-11-26T14:53:51.253Z,11.96
2022-11-26T14:56:19.954Z,11.81
2022-11-26T14:58:54.164Z,11.60
2022-11-26T15:01:27.279Z,11.37
2022-11-26T15:04:04.982Z,11.12
2022-11-26T15:06:42.720Z,10.97
2022-11-26T15:09:21.650Z,10.64
2022-11-26T15:12:14.902Z,10.32
2022-11-26T15:14:47.595Z,10.17
2022-11-26T15:17:17.880Z,10.09
2022-11-26T15:19:45.696Z,9.87
2022-11-26T15:22:32.589Z,9.62
2022-11-26T15:24:59.503Z,9.53
2022-11-26T15:27:36.263Z,9.42
2022-11-26T15:30:17.226Z,9.25
2022-11-26T15:32:44.085Z,9.17
2022-11-26T15:35:15.243Z,9.09
2022-11-26T15:37:42.271Z,9.01
2022-11-26T15:40:24.166Z,8.87
2022-11-26T15:43:00.978Z,8.71
2022-11-26T15:45:41.858Z,8.59
2022-11-26T15:48:29.820Z,8.50
2022-11-26T15:51:15.737Z,8.41
2022-11-26T15:53:47.985Z,8.31
2022-11-26T15:56:24.322Z,8.13
2022-11-26T15:59:05.778Z,7.97
2022-11-26T16:01:35.585Z,7.92
2022-11-26T16:04:06.454Z,7.77
2022-11-26T16:06:40.291Z,7.63
2022-11-26T16:09:13.548Z,7.56
2022-11-26T16:11:58.606Z,7.42
2022-11-26T16:14:35.190Z,7.29
2022-11-26T16:17:10.890Z,7.25
2022-11-26T16:19:54.689Z,7.21
2022-11-26T16:22:28.338Z,7.21
2022-11-26T16:25:16.243Z,7.15
2022-11-26T16:27:49.152Z,7.07
2022-11-26T16:30:17.892Z,7.03
2022-11-26T16:32:44.714Z,7.04
2022-11-26T16:35:37.554Z,7.00
2022-11-26T16:37:58.878Z,6.95
2022-11-26T16:40:26.662Z,6.87
2022-11-26T16:42:53.639Z,6.82
2022-11-26T16:45:20.553Z,6.65
2022-11-26T16:47:51.904Z,6.60
2022-11-26T16:50:25.162Z,6.60
2022-11-26T16:52:54.148Z,6.53
2022-11-26T16:55:25.425Z,6.63
2022-11-26T16:57:57.012Z,6.62
2022-11-26T17:00:26.161Z,6.67
2022-11-26T17:02:54.154Z,6.56
2022-11-26T17:05:22.570Z,6.48
2022-11-26T17:07:55.570Z,6.44
2022-11-26T17:10:29.133Z,6.49
2022-11-26T17:12:57.020Z,6.50
2022-11-26T17:15:24.247Z,6.36
2022-11-26T17:17:54.613Z,6.38
2022-11-26T17:20:27.237Z,6.42
2022-11-26T17:22:54.703Z,6.40
2022-11-26T17:25:21.596Z,6.44
2022-11-26T17:27:48.705Z,6.37
2022-11-26T17:30:23.884Z,6.32
2022-11-26T17:32:51.641Z,6.28
2022-11-26T17:35:18.824Z,6.26
2022-11-26T17:37:46.005Z,6.26
2022-11-26T17:40:23.686Z,6.12
2022-11-26T17:42:51.174Z,6.03
2022-11-26T17:45:19.270Z,5.92
2022-11-26T17:47:46.380Z,5.87
2022-11-26T17:50:26.013Z,5.85
2022-11-26T17:52:54.491Z,5.88
2022-11-26T17:55:24.193Z,5.78
2022-11-26T17:57:51.510Z,5.61
2022-11-26T18:00:22.877Z,5.62
2022-11-26T18:02:49.871Z,5.61
2022-11-26T18:05:16.893Z,5.62
2022-11-26T18:07:43.763Z,5.60
2022-11-26T18:10:14.395Z,5.59
2022-11-26T18:12:42.188Z,5.59
2022-11-26T18:15:09.394Z,5.58
2022-11-26T18:17:36.285Z,5.57
2022-11-26T18:20:03.285Z,5.47
2022-11-26T18:22:30.321Z,5.37
2022-11-26T18:24:58.405Z,5.31
2022-11-26T18:27:29.157Z,5.22
2022-11-26T18:29:56.152Z,5.20
2022-11-26T18:32:23.547Z,5.13
2022-11-26T18:34:50.931Z,5.12
2022-11-26T18:37:18.660Z,5.09
2022-11-26T18:39:45.731Z,5.15
2022-11-26T18:45:00.952Z,5.28
2022-11-26T18:47:27.826Z,5.32
2022-11-26T18:49:54.700Z,5.28
2022-11-26T18:52:21.487Z,5.08
2022-11-26T18:54:48.302Z,5.19
2022-11-26T18:57:15.290Z,5.24
2022-11-26T18:59:42.575Z,5.27
2022-11-26T19:02:11.100Z,5.28
2022-11-26T19:04:39.204Z,5.28
2022-11-26T19:07:06.089Z,5.27
2022-11-26T19:09:33.081Z,5.25
2022-11-26T19:12:00.375Z,5.25
2022-11-26T19:14:27.257Z,5.22
2022-11-26T19:16:54.233Z,5.14
2022-11-26T19:19:21.398Z,5.03
2022-11-26T19:21:49.746Z,5.02
2022-11-26T19:24:16.937Z,4.94
2022-11-26T19:26:44.290Z,4.84
2022-11-26T19:29:12.898Z,4.78
2022-11-26T19:31:40.175Z,4.78
2022-11-26T19:34:14.750Z,4.69
2022-11-26T19:36:41.579Z,4.60
2022-11-26T19:39:08.932Z,4.58
2022-11-26T19:41:35.799Z,4.64
2022-11-26T19:44:04.018Z,4.73
2022-11-26T19:46:31.437Z,4.78
2022-11-26T19:48:58.407Z,4.83
2022-11-26T19:51:27.765Z,4.92
2022-11-26T19:53:56.350Z,5.00
2022-11-26T19:56:31.495Z,4.96
2022-11-26T19:59:01.963Z,4.86
2022-11-26T20:01:34.411Z,4.93
2022-11-26T20:04:05.176Z,4.95
2022-11-26T20:06:35.038Z,5.01
2022-11-26T20:09:04.299Z,5.07
2022-11-26T20:11:31.270Z,5.09
2022-11-26T20:13:58.733Z,5.13
2022-11-26T20:16:29.841Z,5.11
2022-11-26T20:18:58.360Z,5.12
2022-11-26T20:21:30.831Z,5.08
2022-11-26T20:24:01.391Z,5.00
2022-11-26T20:26:38.663Z,4.94
2022-11-26T20:29:14.808Z,4.88
2022-11-26T20:31:48.875Z,4.77
2022-11-26T20:34:18.767Z,4.67
2022-11-26T20:36:45.838Z,4.57
2022-11-26T20:39:19.749Z,4.55
2022-11-26T20:41:47.143Z,4.49
2022-11-26T20:44:14.366Z,4.48
2022-11-26T20:46:41.992Z,4.44
2022-11-26T20:49:11.307Z,4.38
2022-11-26T20:51:39.092Z,4.34
2022-11-26T20:54:05.946Z,4.35
2022-11-26T20:56:33.241Z,4.33
2022-11-26T20:59:02.124Z,4.31
2022-11-26T21:01:29.902Z,4.21
2022-11-26T21:03:57.426Z,4.21
2022-11-26T21:06:30.190Z,4.16
2022-11-26T21:09:01.158Z,4.04
2022-11-26T21:11:29.254Z,3.95
2022-11-26T21:13:58.817Z,3.89
2022-11-26T21:16:25.869Z,3.85
2022-11-26T21:18:54.521Z,3.84
2022-11-26T21:21:23.667Z,3.83
2022-11-26T21:23:51.049Z,3.75
2022-11-26T21:26:25.077Z,3.78
2022-11-26T21:28:57.218Z,3.76
2022-11-26T21:31:25.968Z,3.78
2022-11-26T21:34:02.501Z,3.78
2022-11-26T21:36:32.036Z,3.89
2022-11-26T21:39:00.092Z,3.91
2022-11-26T21:41:27.584Z,3.96
2022-11-26T21:43:55.392Z,3.96
2022-11-26T21:46:26.286Z,3.97
2022-11-26T21:48:54.433Z,3.96
2022-11-26T21:51:23.425Z,3.90
2022-11-26T21:53:50.589Z,3.77
2022-11-26T21:56:20.569Z,3.74
2022-11-26T21:58:48.151Z,3.68
2022-11-26T22:01:34.362Z,3.52
2022-11-26T22:04:05.103Z,3.55
2022-11-26T22:06:32.101Z,3.50
2022-11-26T22:08:59.275Z,3.52
2022-11-26T22:11:29.585Z,3.49
2022-11-26T22:13:56.816Z,3.50
2022-11-26T22:16:26.073Z,3.56
2022-11-26T22:18:54.154Z,3.66
2022-11-26T22:21:29.200Z,3.70
2022-11-26T22:23:57.207Z,3.78
2022-11-26T22:26:25.281Z,3.86
2022-11-26T22:28:52.542Z,3.95
2022-11-26T22:31:22.060Z,4.02
2022-11-26T22:33:49.999Z,4.10
2022-11-26T22:36:16.830Z,4.18
2022-11-26T22:38:43.702Z,4.22
2022-11-26T22:41:13.522Z,4.19
2022-11-26T22:43:41.457Z,4.24
2022-11-26T22:46:13.547Z,4.29
2022-11-26T22:48:41.490Z,4.31
2022-11-26T22:51:09.219Z,4.32
2022-11-26T22:53:36.813Z,4.26
2022-11-26T22:56:05.386Z,4.20
2022-11-26T22:58:34.377Z,4.22
2022-11-26T23:01:09.053Z,4.18
2022-11-26T23:03:38.086Z,4.12
2022-11-26T23:06:10.742Z,4.01
2022-11-26T23:08:39.191Z,3.95
2022-11-26T23:11:16.256Z,3.91
2022-11-26T23:13:45.655Z,3.83
2022-11-26T23:16:13.032Z,3.70
2022-11-26T23:18:40.355Z,3.59
2022-11-26T23:21:14.598Z,3.55
2022-11-26T23:23:42.409Z,3.56
2022-11-26T23:26:18.464Z,3.54
2022-11-26T23:28:47.339Z,3.54
2022-11-26T23:31:21.265Z,3.48
2022-11-26T23:33:49.483Z,3.52
2022-11-26T23:36:20.434Z,3.52
2022-11-26T23:38:47.780Z,3.47
2022-11-26T23:41:15.021Z,3.45
2022-11-26T23:43:42.265Z,3.38
2022-11-26T23:46:33.039Z,3.40
2022-11-26T23:48:59.879Z,3.44
2022-11-26T23:51:30.207Z,3.43
2022-11-26T23:53:57.099Z,3.42
2022-11-26T23:56:30.048Z,3.46
2022-11-26T23:59:01.510Z,3.48
